»·PEaware :: N5205X KSBA-KSNA

N5205X :: KSBA-KSNA

FLIGHT INFORMATION

Flight Status: Arrived
Operator: Privately registered:
United States
More flights under this callsign
Pilot: Martin B. (29991)
Aircraft: CIRRUS SR-22
(SR22)
More flights by this aircraft type
Origin: KSBA Santa Barbara Mun
United States
Destination: KSNA John Wayne-Orange Co
United States
More flights between these airports :: More routes between these airports
Route: +KWANG CMA VNY V186 BAYJY V363 POXKU V8 SLI
File this flight plan on PilotEdge
Remarks:
Altitude:
(Current/Filed)
5,000ft
Speed:
(Current/Filed)
0kts
Departed: 10-Aug-20 12:35 PM
Arrived: 10-Aug-20 01:35 PM
Distance/Time
Traveled:
108nm/1:00
Distance/Time
To Go:
Arrived

Flight Plot

Page will automatically refresh every two minutes.


Map Options




Map Legend


Flown Route
Filed Route
Departure Airport
Arrival Airport
Navaid (VOR, NDB)
Fix

Horizontal Profiles

Position Reports

Time Latitude Longitude Heading Altitude Ground
Speed
10-Aug-20 11:53 34.424261 -119.836904 105 12ft 0kts
10-Aug-20 11:54 34.424261 -119.836904 105 12ft 0kts
10-Aug-20 11:55 34.424261 -119.836904 105 12ft 0kts
10-Aug-20 11:56 34.424261 -119.836904 105 12ft 0kts
10-Aug-20 11:57 34.424261 -119.836904 105 12ft 0kts
10-Aug-20 11:58 34.424261 -119.836904 105 12ft 0kts
10-Aug-20 11:59 34.424261 -119.836904 105 12ft 0kts
10-Aug-20 12:00 34.424261 -119.836904 105 12ft 0kts
10-Aug-20 12:01 34.424261 -119.836904 105 12ft 0kts
10-Aug-20 12:02 34.424261 -119.836904 105 12ft 0kts
10-Aug-20 12:03 34.424261 -119.836904 105 12ft 0kts
10-Aug-20 12:04 34.424261 -119.836904 105 12ft 0kts
10-Aug-20 12:05 34.424261 -119.836904 105 12ft 0kts
10-Aug-20 12:06 34.424261 -119.836904 105 12ft 0kts
10-Aug-20 12:07 34.424261 -119.836904 105 12ft 0kts
10-Aug-20 12:08 34.424261 -119.836904 105 12ft 0kts
10-Aug-20 12:09 34.424261 -119.836904 105 12ft 0kts
10-Aug-20 12:10 34.424261 -119.836904 105 12ft 0kts
10-Aug-20 12:11 34.424261 -119.836904 105 12ft 0kts
10-Aug-20 12:12 34.424261 -119.836904 105 12ft 0kts
10-Aug-20 12:13 34.424261 -119.836904 105 12ft 0kts
10-Aug-20 12:14 34.424261 -119.836904 105 12ft 0kts
10-Aug-20 12:15 34.424261 -119.836904 105 12ft 0kts
10-Aug-20 12:16 34.424261 -119.836904 105 12ft 0kts
10-Aug-20 12:17 34.424261 -119.836904 105 12ft 0kts
10-Aug-20 12:18 34.424261 -119.836904 105 12ft 0kts
10-Aug-20 12:19 34.424261 -119.836904 105 12ft 0kts
10-Aug-20 12:20 34.424261 -119.836904 105 12ft 0kts
10-Aug-20 12:21 34.424261 -119.836904 105 12ft 0kts
10-Aug-20 12:22 34.424261 -119.836904 105 12ft 0kts
10-Aug-20 12:23 34.424261 -119.836904 105 12ft 0kts
10-Aug-20 12:24 34.424261 -119.836904 105 12ft 0kts
10-Aug-20 12:25 34.424261 -119.836904 105 12ft 0kts
10-Aug-20 12:26 34.424261 -119.836904 105 12ft 0kts
10-Aug-20 12:27 34.424261 -119.836904 105 12ft 0kts
10-Aug-20 12:28 34.424261 -119.836904 105 12ft 0kts
10-Aug-20 12:29 34.424261 -119.836904 105 12ft 0kts
10-Aug-20 12:30 34.424260 -119.836898 104 12ft 0kts
10-Aug-20 12:31 34.426309 -119.838029 344 12ft 13kts
10-Aug-20 12:32 34.427094 -119.834662 8 11ft 0kts
10-Aug-20 12:33 34.427488 -119.834686 354 12ft 13kts
10-Aug-20 12:34 34.428232 -119.852648 276 269ft 124kts
10-Aug-20 12:35 34.440165 -119.895118 303 1600ft 136kts
10-Aug-20 12:36 34.455424 -119.937853 288 2841ft 140kts
10-Aug-20 12:37 34.466861 -119.988820 276 2919ft 179kts
10-Aug-20 12:38 34.466134 -120.043996 267 3742ft 152kts
10-Aug-20 12:39 34.478577 -120.089563 312 4813ft 140kts
10-Aug-20 12:40 34.481848 -120.137978 231 4965ft 173kts
10-Aug-20 12:41 34.447950 -120.116421 121 4967ft 176kts
10-Aug-20 12:42 34.421886 -120.066080 122 4963ft 175kts
10-Aug-20 12:43 34.420602 -120.009799 79 4963ft 174kts
10-Aug-20 12:44 34.428527 -119.951731 97 4952ft 175kts
10-Aug-20 12:45 34.405473 -119.900348 112 4963ft 174kts
10-Aug-20 12:46 34.387273 -119.845875 111 4963ft 174kts
10-Aug-20 12:47 34.368866 -119.790945 111 4963ft 176kts
10-Aug-20 12:48 34.350422 -119.735847 111 4963ft 177kts
10-Aug-20 12:49 34.331912 -119.680563 111 4963ft 176kts
10-Aug-20 12:50 34.313514 -119.625581 111 4963ft 176kts
10-Aug-20 12:51 34.295258 -119.570984 111 4961ft 172kts
10-Aug-20 12:52 34.277467 -119.517635 109 4962ft 171kts
10-Aug-20 12:53 34.270588 -119.460883 99 4963ft 170kts
10-Aug-20 12:54 34.262057 -119.404555 100 4963ft 170kts
10-Aug-20 12:55 34.253147 -119.348096 100 4963ft 170kts
10-Aug-20 12:56 34.244161 -119.291608 100 4963ft 171kts
10-Aug-20 12:57 34.235160 -119.235222 100 4963ft 171kts
10-Aug-20 12:58 34.226104 -119.178678 100 4963ft 171kts
10-Aug-20 12:59 34.217043 -119.122278 100 4963ft 171kts
10-Aug-20 13:00 34.213139 -119.065108 88 4963ft 171kts
10-Aug-20 13:01 34.214322 -119.007847 87 4991ft 171kts
10-Aug-20 13:02 34.215434 -118.950349 88 4990ft 171kts
10-Aug-20 13:03 34.216535 -118.892812 88 4990ft 171kts
10-Aug-20 13:04 34.217616 -118.835088 88 4981ft 171kts
10-Aug-20 13:06 34.218665 -118.777576 88 4981ft 171kts
10-Aug-20 13:07 34.219689 -118.719966 88 4981ft 171kts
10-Aug-20 13:08 34.220674 -118.662159 88 4981ft 172kts
10-Aug-20 13:09 34.221640 -118.604488 88 4981ft 172kts
10-Aug-20 13:10 34.222588 -118.546500 88 4981ft 172kts
10-Aug-20 13:11 34.222691 -118.490046 105 4973ft 172kts
10-Aug-20 13:12 34.206402 -118.435864 110 4990ft 172kts
10-Aug-20 13:13 34.189903 -118.381472 110 4990ft 172kts
10-Aug-20 13:14 34.173337 -118.326921 110 4990ft 172kts
10-Aug-20 13:15 34.156853 -118.272745 110 4990ft 172kts
10-Aug-20 13:16 34.140300 -118.218399 110 4990ft 172kts
10-Aug-20 13:17 34.123762 -118.164030 110 4990ft 172kts
10-Aug-20 13:18 34.107261 -118.109886 110 4990ft 172kts
10-Aug-20 13:19 34.090629 -118.055627 110 4990ft 172kts
10-Aug-20 13:20 34.073940 -118.001498 110 4990ft 172kts
10-Aug-20 13:21 34.057219 -117.947294 111 4989ft 172kts
10-Aug-20 13:22 34.040472 -117.892944 110 4990ft 172kts
10-Aug-20 13:22 34.026572 -117.847809 110 4990ft 172kts
10-Aug-20 13:24 34.004642 -117.786570 147 4983ft 172kts
10-Aug-20 13:25 33.955478 -117.784528 179 4556ft 184kts
10-Aug-20 13:25 33.912462 -117.783728 180 4061ft 188kts
10-Aug-20 13:26 33.868206 -117.801766 241 3939ft 178kts
10-Aug-20 13:27 33.866967 -117.850664 352 3891ft 177kts
10-Aug-20 13:28 33.877351 -117.810464 122 4018ft 172kts
10-Aug-20 13:29 33.829271 -117.799851 177 3410ft 178kts
10-Aug-20 13:30 33.778375 -117.805814 205 2433ft 195kts
10-Aug-20 13:31 33.736971 -117.831737 212 1692ft 131kts
10-Aug-20 13:32 33.706028 -117.849272 218 768ft 118kts
10-Aug-20 13:33 33.683040 -117.864316 203 178ft 79kts
10-Aug-20 13:34 33.674442 -117.868489 147 59ft 0kts
10-Aug-20 13:35 33.675774 -117.866037 28 59ft 27kts
10-Aug-20 13:36 33.678567 -117.863858 147 59ft 1kts
10-Aug-20 13:37 33.678853 -117.863392 214 59ft 23kts
10-Aug-20 13:38 33.672839 -117.867117 139 59ft 13kts
10-Aug-20 13:39 33.671192 -117.867781 211 59ft 0kts
10-Aug-20 13:40 33.671188 -117.867785 210 59ft 0kts
10-Aug-20 13:41 33.671188 -117.867784 210 59ft 0kts

Navigation Log

Ident Type
Flight plan parsing failed, navigation log unavailable